Time;durP1;ratioP1;P1;durP2;ratioP2;P2;SDS_P1;SDS_P2;PMS_P1;PMS_P2;Temp;Humidity;BMP_temperature;BMP_pressure;BME280_temperature;BME280_humidity;BME280_pressure;Samples;Min_cycle;Max_cycle;Signal;HPM_P1;HPM_P2
2021/06/03 00:00:16;;;;;;;1.23;1.10;;;19.10;99.90;;;;;;4932852;29;20183;-77
2021/06/03 00:02:43;;;;;;;1.17;0.93;;;19.00;99.90;;;;;;4933449;29;20657;-78
2021/06/03 00:05:09;;;;;;;1.37;1.10;;;18.80;99.90;;;;;;4933168;29;20714;-78
2021/06/03 00:07:35;;;;;;;1.77;1.13;;;18.70;99.90;;;;;;4934924;29;20250;-78
2021/06/03 00:10:00;;;;;;;1.37;1.17;;;18.70;99.90;;;;;;4952388;28;20288;-78
2021/06/03 00:12:26;;;;;;;2.33;1.20;;;18.60;99.90;;;;;;4936695;29;20185;-77
2021/06/03 00:14:51;;;;;;;1.50;0.90;;;18.60;99.90;;;;;;4936621;29;20188;-77
2021/06/03 00:17:17;;;;;;;1.30;1.17;;;18.50;99.90;;;;;;4936668;29;20182;-77
2021/06/03 00:19:42;;;;;;;1.50;1.00;;;18.40;99.90;;;;;;4936493;29;20633;-77
2021/06/03 00:22:08;;;;;;;1.30;1.10;;;18.30;99.90;;;;;;4937318;29;20208;-77
2021/06/03 00:25:48;;;;;;;2.40;1.10;;;18.40;99.90;;;;;;5148359;27;20300;-79
2021/06/03 00:28:14;;;;;;;2.20;0.87;;;18.30;99.90;;;;;;5132362;28;20650;-79
2021/06/03 00:30:39;;;;;;;1.47;1.10;;;18.30;99.90;;;;;;5130746;28;20252;-77
2021/06/03 00:33:05;;;;;;;1.40;1.10;;;18.30;99.90;;;;;;5130435;27;20182;-79
2021/06/03 00:35:31;;;;;;;1.10;1.00;;;18.30;99.90;;;;;;5131060;28;20172;-79
2021/06/03 00:37:56;;;;;;;1.53;1.10;;;18.30;99.90;;;;;;5131184;28;20180;-79
2021/06/03 00:40:22;;;;;;;1.70;1.10;;;18.40;99.90;;;;;;5113959;28;20211;-79
2021/06/03 00:42:48;;;;;;;1.70;1.20;;;18.40;99.90;;;;;;5114774;28;20176;-79
2021/06/03 00:45:16;;;;;;;1.80;1.10;;;18.50;99.90;;;;;;5131436;27;20210;-79
2021/06/03 00:47:42;;;;;;;1.67;1.17;;;18.50;99.90;;;;;;5114669;28;20193;-79
2021/06/03 00:50:13;;;;;;;2.20;1.17;;;18.60;99.90;;;;;;5113940;28;20172;-79
2021/06/03 00:52:38;;;;;;;1.80;1.07;;;18.60;99.90;;;;;;5114763;27;20186;-79
2021/06/03 00:55:04;;;;;;;2.57;1.20;;;18.50;99.90;;;;;;5113259;28;20180;-77
2021/06/03 00:57:30;;;;;;;1.40;1.27;;;18.50;99.90;;;;;;5131017;28;20274;-79
2021/06/03 00:59:55;;;;;;;1.20;0.93;;;18.40;99.90;;;;;;5131506;27;20235;-79
2021/06/03 01:02:21;;;;;;;1.07;0.97;;;18.50;99.90;;;;;;5114316;28;20196;-79
2021/06/03 01:04:47;;;;;;;1.40;1.13;;;18.40;99.90;;;;;;5114057;28;20207;-79
2021/06/03 01:07:12;;;;;;;1.60;1.10;;;18.30;99.90;;;;;;5114039;27;20182;-79
2021/06/03 01:10:00;;;;;;;1.53;1.10;;;18.20;99.90;;;;;;5113484;28;20178;-79
2021/06/03 01:12:29;;;;;;;1.73;1.10;;;18.10;99.90;;;;;;5117623;27;20184;-79
2021/06/03 01:14:56;;;;;;;1.70;1.10;;;18.10;99.90;;;;;;5114168;28;20184;-79
2021/06/03 01:17:22;;;;;;;2.40;1.30;;;18.00;99.90;;;;;;5130938;27;20188;-79
2021/06/03 01:19:48;;;;;;;1.80;1.27;;;18.10;99.90;;;;;;5113849;28;20175;-79
2021/06/03 01:22:56;;;;;;;1.73;1.20;;;18.10;99.90;;;;;;5113765;28;20199;-79
2021/06/03 01:25:25;;;;;;;2.33;1.20;;;18.10;99.90;;;;;;5096806;28;20226;-80
2021/06/03 01:27:51;;;;;;;1.30;1.10;;;18.00;99.90;;;;;;5130586;28;20176;-79
2021/06/03 01:30:25;;;;;;;2.57;1.10;;;17.90;99.90;;;;;;5112802;28;20232;-79
2021/06/03 01:32:53;;;;;;;1.83;1.07;;;17.80;99.90;;;;;;5113159;28;20180;-79
2021/06/03 01:35:23;;;;;;;2.30;1.10;;;17.70;99.90;;;;;;5127741;28;20267;-79
2021/06/03 01:37:49;;;;;;;1.33;1.17;;;17.60;99.90;;;;;;5099980;28;20558;-79
2021/06/03 01:40:14;;;;;;;1.60;1.10;;;17.60;99.90;;;;;;5100174;28;20173;-79
2021/06/03 01:42:42;;;;;;;2.77;1.50;;;17.50;99.90;;;;;;5099897;28;20176;-79
2021/06/03 01:45:08;;;;;;;2.00;1.30;;;17.50;99.90;;;;;;5100104;28;20296;-79
2021/06/03 01:47:34;;;;;;;2.30;1.20;;;17.60;99.90;;;;;;5100105;28;20202;-79
2021/06/03 01:49:59;;;;;;;2.17;1.37;;;17.60;99.90;;;;;;5100301;28;20172;-79
2021/06/03 01:52:25;;;;;;;1.70;1.43;;;17.60;99.90;;;;;;5101306;28;20598;-79
2021/06/03 01:54:51;;;;;;;2.20;1.50;;;17.70;99.90;;;;;;5100048;28;20180;-79
2021/06/03 01:57:16;;;;;;;1.27;1.17;;;17.80;99.90;;;;;;5101357;28;20237;-79
2021/06/03 01:59:42;;;;;;;2.93;1.30;;;17.80;99.90;;;;;;5119252;28;20196;-79
2021/06/03 02:02:07;;;;;;;1.77;1.50;;;17.80;99.90;;;;;;5117571;28;20196;-79
2021/06/03 02:04:33;;;;;;;1.33;1.10;;;17.80;99.90;;;;;;5116844;28;20200;-79
2021/06/03 02:06:58;;;;;;;1.60;1.17;;;17.70;99.90;;;;;;5117090;28;20259;-79
2021/06/03 02:09:24;;;;;;;2.53;1.10;;;17.60;99.90;;;;;;5098984;28;20201;-79
2021/06/03 02:11:50;;;;;;;1.73;1.40;;;17.40;99.90;;;;;;5117210;28;20207;-79
2021/06/03 02:14:28;;;;;;;1.40;1.20;;;17.50;99.90;;;;;;5116895;28;20647;-79
2021/06/03 02:17:03;;;;;;;1.20;1.10;;;17.40;99.90;;;;;;5116125;28;20172;-79
2021/06/03 02:19:39;;;;;;;2.17;1.40;;;17.30;99.90;;;;;;5116096;28;20557;-79
2021/06/03 02:22:04;;;;;;;1.20;1.10;;;17.20;99.90;;;;;;5099477;28;20200;-79
2021/06/03 02:24:30;;;;;;;1.50;1.30;;;17.10;99.90;;;;;;5098710;28;20208;-79
2021/06/03 02:26:55;;;;;;;1.80;1.40;;;17.10;99.90;;;;;;5099577;28;20187;-79
2021/06/03 02:29:21;;;;;;;1.93;1.30;;;17.00;99.90;;;;;;5101060;28;20176;-79
2021/06/03 02:31:46;;;;;;;1.67;1.30;;;16.90;99.90;;;;;;5099907;28;20196;-79
2021/06/03 02:34:12;;;;;;;1.73;1.40;;;16.90;99.90;;;;;;5100074;28;20180;-79
2021/06/03 02:36:37;;;;;;;1.40;1.07;;;16.80;99.90;;;;;;5100215;28;20180;-79
2021/06/03 02:39:04;;;;;;;1.47;1.37;;;16.70;99.90;;;;;;5100094;28;20594;-79
2021/06/03 02:41:30;;;;;;;1.47;1.33;;;16.70;99.90;;;;;;5099686;28;20198;-80
2021/06/03 02:43:56;;;;;;;1.33;1.23;;;16.70;99.90;;;;;;5117050;28;20221;-79
2021/06/03 02:46:22;;;;;;;1.40;1.23;;;16.60;99.90;;;;;;5116839;28;20251;-79
2021/06/03 02:48:47;;;;;;;1.67;1.33;;;16.60;99.90;;;;;;5097857;28;20603;-79
2021/06/03 02:51:14;;;;;;;1.53;1.40;;;16.60;99.90;;;;;;5099228;28;20192;-79
2021/06/03 02:53:39;;;;;;;2.47;1.50;;;16.60;99.90;;;;;;5099950;28;20184;-79
2021/06/03 02:56:05;;;;;;;1.57;1.40;;;16.60;99.90;;;;;;5099445;28;20704;-79
2021/06/03 02:58:31;;;;;;;1.63;1.50;;;16.50;99.90;;;;;;5099487;28;20263;-79
2021/06/03 03:00:56;;;;;;;3.10;1.50;;;16.50;99.90;;;;;;5116196;28;20188;-79
2021/06/03 03:03:23;;;;;;;3.27;1.33;;;16.50;99.90;;;;;;5117137;28;20218;-80
2021/06/03 03:05:49;;;;;;;1.50;1.40;;;16.50;99.90;;;;;;5099654;28;20200;-79
2021/06/03 03:08:15;;;;;;;1.90;1.30;;;16.60;99.90;;;;;;5099174;28;20263;-79
2021/06/03 03:10:42;;;;;;;2.00;1.30;;;16.60;99.90;;;;;;5099436;28;20247;-79
2021/06/03 03:13:08;;;;;;;2.23;1.50;;;16.60;99.90;;;;;;5099502;28;20710;-80
2021/06/03 03:15:34;;;;;;;2.40;1.17;;;16.50;99.90;;;;;;5099736;28;20211;-79
2021/06/03 03:18:00;;;;;;;1.90;1.40;;;16.60;99.90;;;;;;5098577;28;20183;-79
2021/06/03 03:20:26;;;;;;;2.13;1.53;;;16.60;99.90;;;;;;5115188;28;20192;-79
2021/06/03 03:22:52;;;;;;;1.63;1.30;;;16.60;99.90;;;;;;5098448;28;20214;-79
2021/06/03 03:25:17;;;;;;;2.37;1.40;;;16.60;99.90;;;;;;5098669;28;20642;-79
2021/06/03 03:27:44;;;;;;;2.17;1.50;;;16.60;99.90;;;;;;5114333;28;20175;-79
2021/06/03 03:30:10;;;;;;;1.57;1.40;;;16.70;99.90;;;;;;5097939;28;20177;-79
2021/06/03 03:32:35;;;;;;;1.60;1.50;;;16.70;99.90;;;;;;5098226;28;20172;-79
2021/06/03 03:35:01;;;;;;;4.50;1.40;;;16.70;99.90;;;;;;5114045;28;20240;-79
2021/06/03 03:37:28;;;;;;;1.60;1.23;;;16.70;99.90;;;;;;5115238;28;20172;-79
2021/06/03 03:39:55;;;;;;;1.60;1.37;;;16.70;99.90;;;;;;5097776;28;20659;-79
2021/06/03 03:42:20;;;;;;;1.70;1.30;;;16.70;99.90;;;;;;5115893;28;20721;-79
2021/06/03 03:44:46;;;;;;;1.87;1.40;;;16.70;99.90;;;;;;5098209;28;20195;-79
2021/06/03 03:47:11;;;;;;;1.63;1.30;;;16.90;99.90;;;;;;5098034;28;20168;-79
2021/06/03 03:49:37;;;;;;;3.37;1.43;;;16.90;99.90;;;;;;5114343;28;20237;-77
2021/06/03 03:52:03;;;;;;;2.33;1.60;;;17.00;99.90;;;;;;5097293;28;20200;-79
2021/06/03 03:54:29;;;;;;;2.87;1.40;;;17.20;99.90;;;;;;5098794;28;20179;-79
2021/06/03 03:56:55;;;;;;;2.33;1.53;;;17.30;99.90;;;;;;5095899;28;20199;-77
2021/06/03 03:59:21;;;;;;;1.93;1.37;;;17.40;99.90;;;;;;5100793;28;20657;-79
2021/06/03 04:01:47;;;;;;;2.10;1.67;;;17.50;99.90;;;;;;5101275;28;20192;-79
2021/06/03 04:04:13;;;;;;;2.20;1.57;;;17.50;99.90;;;;;;5099570;28;20231;-79
2021/06/03 04:06:39;;;;;;;3.80;1.50;;;17.60;99.90;;;;;;5116276;28;20180;-77
2021/06/03 04:09:05;;;;;;;3.37;1.63;;;17.60;99.90;;;;;;5118868;28;20204;-79
2021/06/03 04:11:30;;;;;;;1.90;1.50;;;17.60;99.90;;;;;;5101210;28;20201;-79
2021/06/03 04:13:56;;;;;;;2.40;1.63;;;17.70;99.90;;;;;;5119253;28;20191;-79
2021/06/03 04:16:21;;;;;;;1.83;1.60;;;17.70;99.90;;;;;;5101540;28;20259;-79
2021/06/03 04:18:47;;;;;;;1.93;1.50;;;17.80;99.90;;;;;;5100920;28;20204;-79
2021/06/03 04:21:13;;;;;;;1.53;1.43;;;17.80;99.90;;;;;;5101115;28;20206;-79
2021/06/03 04:23:38;;;;;;;2.50;1.70;;;17.80;99.90;;;;;;5101216;28;20188;-79
2021/06/03 04:26:04;;;;;;;2.37;1.43;;;17.80;99.90;;;;;;5116124;28;20169;-79
2021/06/03 04:28:30;;;;;;;1.67;1.50;;;17.80;99.90;;;;;;5100970;28;20264;-79
2021/06/03 04:30:55;;;;;;;2.87;1.60;;;17.90;99.90;;;;;;5117016;28;20200;-79
2021/06/03 04:33:22;;;;;;;1.63;1.43;;;18.00;99.90;;;;;;5100684;28;20178;-79
2021/06/03 04:35:49;;;;;;;2.00;1.70;;;17.90;99.90;;;;;;5103336;28;20261;-79
2021/06/03 04:38:15;;;;;;;1.80;1.40;;;18.00;99.90;;;;;;5118708;28;20225;-79
2021/06/03 04:40:40;;;;;;;2.23;1.40;;;18.10;99.90;;;;;;5101562;28;20192;-79
2021/06/03 04:43:06;;;;;;;1.83;1.40;;;18.10;99.90;;;;;;5117907;28;20169;-79
2021/06/03 04:45:36;;;;;;;2.37;1.53;;;18.20;99.90;;;;;;5118374;28;20208;-79
2021/06/03 04:48:01;;;;;;;3.77;1.30;;;18.20;99.90;;;;;;5101918;28;20169;-79
2021/06/03 04:50:27;;;;;;;2.00;1.50;;;18.30;99.90;;;;;;5118389;28;20198;-79
2021/06/03 04:52:53;;;;;;;2.47;1.53;;;18.40;99.90;;;;;;5101260;28;20176;-79
2021/06/03 04:55:20;;;;;;;1.70;1.47;;;18.30;99.90;;;;;;5100908;28;20209;-79
2021/06/03 04:57:46;;;;;;;1.70;1.30;;;18.40;99.90;;;;;;5102922;28;20179;-79
2021/06/03 05:00:16;;;;;;;1.50;1.40;;;18.40;99.90;;;;;;5100568;28;20212;-78
2021/06/03 05:02:42;;;;;;;2.90;1.60;;;18.50;99.90;;;;;;5100871;28;20232;-79
2021/06/03 05:05:08;;;;;;;2.50;1.20;;;18.50;99.90;;;;;;5101149;28;20287;-79
2021/06/03 05:07:34;;;;;;;1.90;1.50;;;18.40;99.90;;;;;;5099595;28;20263;-79
2021/06/03 05:09:59;;;;;;;1.47;1.37;;;18.40;99.90;;;;;;5101203;28;20273;-79
2021/06/03 05:12:25;;;;;;;2.13;1.70;;;18.40;99.90;;;;;;5121638;28;20195;-79
2021/06/03 05:14:51;;;;;;;1.90;1.60;;;18.50;99.90;;;;;;5103766;28;20195;-79
2021/06/03 05:17:16;;;;;;;3.20;1.67;;;18.60;99.90;;;;;;5104669;28;20201;-79
2021/06/03 05:19:42;;;;;;;2.70;1.67;;;18.60;99.90;;;;;;5121125;28;20180;-79
2021/06/03 05:22:07;;;;;;;2.77;1.57;;;18.70;99.90;;;;;;5121018;28;20196;-78
2021/06/03 05:24:33;;;;;;;2.80;1.60;;;18.70;99.90;;;;;;5121676;28;20208;-77
2021/06/03 05:26:59;;;;;;;2.10;1.70;;;18.60;99.90;;;;;;5122039;28;20222;-79
2021/06/03 05:29:25;;;;;;;2.27;1.50;;;18.50;99.90;;;;;;5104240;28;20177;-79
2021/06/03 05:31:52;;;;;;;2.20;1.90;;;18.60;99.90;;;;;;5101040;28;20212;-77
2021/06/03 05:34:18;;;;;;;2.73;1.63;;;18.80;99.90;;;;;;5121411;28;20218;-79
2021/06/03 05:36:43;;;;;;;3.23;1.50;;;18.90;99.90;;;;;;5104007;28;20172;-79
2021/06/03 05:39:09;;;;;;;2.20;1.90;;;19.00;99.90;;;;;;5104517;28;20199;-79
2021/06/03 05:41:37;;;;;;;1.93;1.73;;;19.10;99.90;;;;;;5104988;28;20213;-79
2021/06/03 05:44:09;;;;;;;2.73;1.93;;;19.20;99.90;;;;;;5103901;28;20290;-79
2021/06/03 05:46:35;;;;;;;2.00;1.77;;;19.40;99.90;;;;;;5103871;28;20657;-79
2021/06/03 05:49:01;;;;;;;2.70;1.80;;;19.50;99.90;;;;;;5106384;28;20238;-79
2021/06/03 05:51:28;;;;;;;3.50;1.90;;;19.60;99.90;;;;;;5121356;28;20208;-79
2021/06/03 05:53:53;;;;;;;2.33;1.60;;;19.70;99.90;;;;;;5121023;28;20820;-79
2021/06/03 05:56:19;;;;;;;4.53;1.80;;;19.90;99.90;;;;;;5103896;28;20179;-79
2021/06/03 05:58:45;;;;;;;1.53;1.43;;;20.10;99.90;;;;;;5103614;28;20180;-79
2021/06/03 06:01:10;;;;;;;1.93;1.57;;;20.30;99.90;;;;;;5104092;28;20199;-79
2021/06/03 06:03:43;;;;;;;1.77;1.50;;;20.50;99.90;;;;;;5120867;28;20177;-79
2021/06/03 06:06:24;;;;;;;2.80;1.80;;;20.60;99.90;;;;;;5105345;28;20171;-79
2021/06/03 06:08:54;;;;;;;2.43;1.63;;;20.60;99.90;;;;;;5106118;28;20647;-79
2021/06/03 06:11:20;;;;;;;2.50;1.83;;;20.60;99.90;;;;;;5119957;28;20417;-79
2021/06/03 06:13:46;;;;;;;3.00;1.60;;;20.70;99.90;;;;;;5102821;28;20675;-79
2021/06/03 06:16:12;;;;;;;2.37;1.77;;;21.00;99.90;;;;;;5102523;28;20176;-79
2021/06/03 06:18:38;;;;;;;1.50;1.37;;;21.40;99.90;;;;;;5103739;28;20177;-79
2021/06/03 06:21:04;;;;;;;2.50;1.73;;;22.10;99.90;;;;;;5099954;28;20261;-79
2021/06/03 06:23:32;;;;;;;1.70;1.60;;;22.40;99.90;;;;;;5089574;28;20173;-79
2021/06/03 06:25:57;;;;;;;2.53;2.00;;;23.00;99.90;;;;;;5094728;28;20192;-79
2021/06/03 06:28:23;;;;;;;2.50;1.57;;;23.00;99.90;;;;;;5095171;28;20241;-79
2021/06/03 06:30:48;;;;;;;1.67;1.50;;;23.00;99.90;;;;;;5097206;28;20203;-79
2021/06/03 06:33:14;;;;;;;1.93;1.63;;;22.80;99.90;;;;;;5099888;28;20177;-79
2021/06/03 06:35:40;;;;;;;3.27;1.90;;;22.60;99.90;;;;;;5102140;28;20211;-79
2021/06/03 06:38:05;;;;;;;2.90;1.80;;;22.40;99.90;;;;;;5103248;28;20200;-79
2021/06/03 06:40:31;;;;;;;2.20;1.70;;;22.20;99.90;;;;;;5120165;28;20200;-79
2021/06/03 06:42:56;;;;;;;1.80;1.60;;;22.10;99.90;;;;;;5102414;28;20243;-79
2021/06/03 06:45:24;;;;;;;3.37;1.60;;;22.20;99.90;;;;;;5103614;28;20212;-79
2021/06/03 06:47:49;;;;;;;1.87;1.63;;;22.20;99.90;;;;;;5103090;28;20176;-80
2021/06/03 06:50:15;;;;;;;2.00;1.70;;;22.30;99.90;;;;;;5118901;28;20179;-79
2021/06/03 06:52:41;;;;;;;2.00;1.80;;;22.50;99.90;;;;;;5101917;28;20244;-79
2021/06/03 06:55:07;;;;;;;3.20;1.87;;;22.60;99.90;;;;;;5102947;28;20339;-79
2021/06/03 06:57:32;;;;;;;3.23;2.47;;;22.80;99.90;;;;;;5116927;28;20237;-80
2021/06/03 06:59:58;;;;;;;3.60;1.90;;;23.10;99.90;;;;;;5097006;28;20180;-80
2021/06/03 07:02:24;;;;;;;2.03;1.67;;;23.40;99.90;;;;;;5114736;28;20264;-80
2021/06/03 07:04:49;;;;;;;2.10;1.80;;;23.80;99.90;;;;;;5097307;28;20212;-81
2021/06/03 07:07:15;;;;;;;3.27;1.70;;;24.00;99.90;;;;;;5114228;28;20224;-80
2021/06/03 07:09:40;;;;;;;2.47;1.30;;;24.40;99.90;;;;;;5114178;28;20249;-80
2021/06/03 07:12:06;;;;;;;1.50;1.37;;;24.60;99.90;;;;;;5097452;28;20236;-81
2021/06/03 07:14:32;;;;;;;1.20;0.97;;;24.50;99.90;;;;;;5098822;28;20640;-80
2021/06/03 07:16:57;;;;;;;2.03;1.30;;;24.20;99.90;;;;;;5117905;28;20169;-81
2021/06/03 07:19:23;;;;;;;1.70;1.30;;;24.20;99.90;;;;;;5100784;28;20183;-80
2021/06/03 07:21:49;;;;;;;1.70;1.20;;;24.20;99.90;;;;;;5100949;28;20192;-80
2021/06/03 07:24:14;;;;;;;2.20;1.37;;;24.30;99.90;;;;;;5106546;28;20235;-80
2021/06/03 07:26:40;;;;;;;1.50;1.17;;;24.40;99.90;;;;;;5101883;28;20631;-80
2021/06/03 07:32:29;;;;;;;1.83;1.30;;;24.90;99.90;;;;;;5113276;28;20670;-77
2021/06/03 07:34:55;;;;;;;1.57;1.30;;;25.60;99.90;;;;;;5095205;28;20172;-78
2021/06/03 07:37:21;;;;;;;1.87;1.40;;;26.10;99.90;;;;;;5112930;28;20258;-78
2021/06/03 07:39:46;;;;;;;1.67;1.40;;;25.90;99.90;;;;;;5112484;28;20222;-78
2021/06/03 07:42:12;;;;;;;1.43;1.17;;;25.50;99.90;;;;;;5114584;28;20280;-78
2021/06/03 07:44:39;;;;;;;2.27;1.70;;;25.10;99.90;;;;;;5096050;28;20192;-77
2021/06/03 07:47:05;;;;;;;4.17;1.30;;;24.80;99.90;;;;;;5111784;28;20165;-76
2021/06/03 07:49:30;;;;;;;1.53;1.33;;;24.60;99.90;;;;;;5094431;28;20632;-78
2021/06/03 07:51:57;;;;;;;1.90;1.40;;;24.50;99.90;;;;;;5111553;28;20211;-77
2021/06/03 07:54:23;;;;;;;2.00;1.33;;;24.60;99.90;;;;;;5111378;28;20184;-77
2021/06/03 07:56:48;;;;;;;2.67;1.63;;;24.70;99.90;;;;;;5094332;28;20183;-78
2021/06/03 07:59:14;;;;;;;1.63;1.40;;;24.70;99.90;;;;;;5111425;28;20183;-77
2021/06/03 08:01:39;;;;;;;1.60;1.23;;;24.80;99.90;;;;;;5094251;28;20224;-77
2021/06/03 08:04:05;;;;;;;3.07;1.50;;;24.90;99.90;;;;;;5111533;28;20688;-77
2021/06/03 08:06:30;;;;;;;2.10;1.67;;;25.10;99.90;;;;;;5111457;28;20172;-79
2021/06/03 08:08:56;;;;;;;2.50;1.30;;;25.30;99.90;;;;;;5111350;28;20168;-77
2021/06/03 08:11:22;;;;;;;4.97;1.70;;;25.50;99.90;;;;;;5110875;28;20233;-78
2021/06/03 08:13:47;;;;;;;1.73;1.30;;;25.60;99.90;;;;;;5111383;28;20182;-78
2021/06/03 08:16:13;;;;;;;1.90;1.30;;;25.70;99.90;;;;;;5111157;28;20259;-77
2021/06/03 08:18:38;;;;;;;3.30;1.60;;;25.90;99.90;;;;;;5111401;28;20183;-78
2021/06/03 08:21:04;;;;;;;2.07;1.33;;;26.00;99.90;;;;;;5093951;28;20685;-77
2021/06/03 08:23:30;;;;;;;2.53;1.47;;;26.00;99.90;;;;;;5094054;28;20179;-77
2021/06/03 08:25:56;;;;;;;2.50;1.63;;;26.00;99.90;;;;;;5111072;28;20204;-78
2021/06/03 08:28:23;;;;;;;2.57;2.00;;;25.90;99.90;;;;;;5094098;28;20169;-78
2021/06/03 08:30:48;;;;;;;2.80;1.47;;;25.90;99.90;;;;;;5110587;28;20638;-76
2021/06/03 08:33:14;;;;;;;1.90;1.40;;;25.90;99.90;;;;;;5111157;28;20239;-78
2021/06/03 08:35:40;;;;;;;1.60;1.30;;;25.80;99.90;;;;;;5111677;28;20205;-79
2021/06/03 08:38:08;;;;;;;2.37;1.70;;;25.90;99.90;;;;;;5116953;28;20173;-79
2021/06/03 08:40:56;;;;;;;2.73;1.33;;;25.80;99.90;;;;;;5095640;28;20196;-78
2021/06/03 08:43:22;;;;;;;2.10;1.60;;;25.80;99.90;;;;;;5106783;28;20180;-78
2021/06/03 08:45:48;;;;;;;1.90;1.50;;;25.80;99.90;;;;;;5111704;28;20272;-79
2021/06/03 08:48:14;;;;;;;1.93;1.53;;;25.90;99.90;;;;;;5115058;28;20180;-77
2021/06/03 08:50:42;;;;;;;2.15;1.45;;;25.90;99.90;;;;;;5096027;28;20616;-76
2021/06/03 08:53:08;;;;;;;3.33;1.77;;;26.00;99.90;;;;;;5108145;28;20206;-77
2021/06/03 08:58:38;;;;;;;3.80;1.60;;;25.50;99.90;;;;;;5049758;28;20205;-77
2021/06/03 09:01:04;;;;;;;1.65;1.55;;;25.40;99.90;;;;;;5050081;28;20225;-76
2021/06/03 09:03:30;;;;;;;2.63;1.53;;;25.40;99.90;;;;;;5081075;28;20270;-77
2021/06/03 09:05:56;;;;;;;4.00;1.52;;;25.60;99.90;;;;;;5094278;28;20696;-76
2021/06/03 09:08:26;;;;;;;3.40;1.50;;;26.10;99.90;;;;;;5092794;28;20180;-77
2021/06/03 09:11:14;;;;;;;1.55;1.45;;;26.50;99.90;;;;;;5115414;28;20562;-76
2021/06/03 09:13:45;;;;;;;1.73;1.33;;;26.80;99.90;;;;;;5115697;28;20173;-76
2021/06/03 09:16:10;;;;;;;3.20;1.50;;;26.90;99.90;;;;;;5093976;28;20606;-76
2021/06/03 09:18:39;;;;;;;2.13;1.30;;;26.60;99.90;;;;;;5111276;28;20207;-77
2021/06/03 09:21:19;;;;;;;2.57;1.57;;;26.50;99.90;;;;;;5113824;28;20191;-76
2021/06/03 09:23:56;;;;;;;4.47;1.50;;;26.50;99.90;;;;;;5106425;28;20583;-76
2021/06/03 09:26:21;;;;;;;3.80;1.40;;;26.60;99.90;;;;;;5105521;27;20183;-76
2021/06/03 09:28:47;;;;;;;1.92;1.50;;;26.90;99.90;;;;;;5106540;27;20547;-76
2021/06/03 09:31:20;;;;;;;2.10;1.60;;;27.00;99.90;;;;;;5123503;27;20733;-77
2021/06/03 09:34:16;;;;;;;1.95;1.40;;;27.00;99.90;;;;;;5116341;27;20215;-77
2021/06/03 09:36:54;;;;;;;2.45;1.35;;;26.90;99.90;;;;;;5095478;28;20180;-77
2021/06/03 09:39:50;;;;;;;2.13;1.33;;;27.00;99.90;;;;;;5107549;28;20180;-81
2021/06/03 09:42:19;;;;;;;2.78;1.50;;;27.10;99.90;;;;;;5089557;28;20209;-78
2021/06/03 09:44:49;;;;;;;2.00;1.50;;;27.20;99.90;;;;;;5112670;28;20203;-76
2021/06/03 09:47:19;;;;;;;2.03;1.60;;;27.10;99.90;;;;;;5111683;28;20184;-76
2021/06/03 09:49:45;;;;;;;2.00;1.50;;;27.20;99.90;;;;;;5114657;27;20285;-76
2021/06/03 09:52:15;;;;;;;2.10;1.45;;;27.30;99.90;;;;;;5114741;28;20726;-77
2021/06/03 09:54:42;;;;;;;2.55;1.75;;;27.30;99.90;;;;;;5096750;28;20180;-78
2021/06/03 09:57:09;;;;;;;1.85;1.30;;;27.10;99.90;;;;;;5097484;28;20610;-77
2021/06/03 09:59:43;;;;;;;2.28;1.38;;;27.10;99.90;;;;;;5071915;28;20169;-79
2021/06/03 10:02:09;;;;;;;1.95;1.27;;;27.30;99.90;;;;;;5094830;28;20246;-77
2021/06/03 10:04:36;;;;;;;2.47;1.20;;;27.40;99.90;;;;;;5114734;28;20601;-78
2021/06/03 10:07:02;;;;;;;1.23;1.13;;;27.50;99.90;;;;;;5098289;28;20184;-78
2021/06/03 10:09:34;;;;;;;1.40;1.20;;;27.60;99.90;;;;;;5098358;28;20643;-79
2021/06/03 10:11:59;;;;;;;2.00;1.48;;;27.70;99.90;;;;;;5116794;28;20207;-78
2021/06/03 10:14:26;;;;;;;2.33;1.27;;;27.80;99.90;;;;;;5081714;28;20168;-79
2021/06/03 10:16:51;;;;;;;2.10;1.33;;;27.90;99.90;;;;;;5081180;28;20180;-78
2021/06/03 10:19:27;;;;;;;1.75;1.30;;;28.00;99.90;;;;;;5097485;28;20183;-78
2021/06/03 10:22:13;;;;;;;3.78;1.45;;;28.00;99.90;;;;;;5109438;28;21118;-79
2021/06/03 10:24:57;;;;;;;3.45;1.48;;;27.70;99.90;;;;;;5076753;28;20215;-78
2021/06/03 10:27:29;;;;;;;2.30;1.50;;;27.50;99.90;;;;;;5097670;28;20208;-78
2021/06/03 10:29:54;;;;;;;3.15;1.45;;;27.40;99.90;;;;;;5097557;28;20575;-78
2021/06/03 10:32:22;;;;;;;1.63;1.33;;;27.40;99.90;;;;;;5097613;28;20237;-78
2021/06/03 10:34:48;;;;;;;1.95;1.35;;;27.20;99.90;;;;;;5097820;28;20168;-78
2021/06/03 10:37:14;;;;;;;2.53;1.30;;;27.10;99.90;;;;;;5097672;28;20543;-80
2021/06/03 10:39:41;;;;;;;1.42;1.20;;;27.10;99.90;;;;;;5080441;28;20176;-79
2021/06/03 10:42:07;;;;;;;2.88;1.60;;;27.10;99.90;;;;;;5114678;28;20196;-79
2021/06/03 10:44:33;;;;;;;2.85;1.50;;;27.10;99.90;;;;;;5097543;28;20216;-78
2021/06/03 10:46:58;;;;;;;1.90;1.30;;;27.10;99.90;;;;;;5081978;28;20176;-78
2021/06/03 10:49:24;;;;;;;3.08;1.30;;;27.00;99.90;;;;;;5098234;28;20528;-79
2021/06/03 10:51:50;;;;;;;2.47;1.65;;;27.10;99.90;;;;;;5097561;28;20192;-79
2021/06/03 10:54:51;;;;;;;2.42;1.50;;;27.20;99.90;;;;;;5097838;28;20263;-79
2021/06/03 10:57:20;;;;;;;3.35;1.60;;;27.10;99.90;;;;;;5097894;28;20650;-81
2021/06/03 10:59:45;;;;;;;3.03;1.40;;;27.10;99.90;;;;;;5080864;28;20207;-81
2021/06/03 11:02:11;;;;;;;4.32;1.60;;;27.10;99.90;;;;;;5097223;28;20200;-80
2021/06/03 11:04:38;;;;;;;2.95;1.40;;;27.00;99.90;;;;;;5098415;28;20693;-83
2021/06/03 11:07:04;;;;;;;2.92;1.73;;;26.70;99.90;;;;;;5098650;28;20217;-82
2021/06/03 11:09:31;;;;;;;3.30;1.77;;;26.60;99.90;;;;;;5081042;28;20176;-80
2021/06/03 11:12:15;;;;;;;2.15;1.73;;;26.50;99.90;;;;;;5081765;28;20196;-81
2021/06/03 11:15:03;;;;;;;2.55;1.65;;;26.50;99.90;;;;;;5116946;28;20169;-80
2021/06/03 11:17:54;;;;;;;2.22;1.60;;;26.50;99.90;;;;;;5115888;28;20228;-79
2021/06/03 11:20:37;;;;;;;1.63;1.50;;;26.50;99.90;;;;;;5096743;28;20686;-78
2021/06/03 11:23:35;;;;;;;2.10;1.60;;;26.40;99.90;;;;;;5114647;28;20322;-80
2021/06/03 11:26:04;;;;;;;2.55;1.80;;;26.40;99.90;;;;;;5094552;28;20597;-81
2021/06/03 11:28:29;;;;;;;3.38;1.55;;;26.60;99.90;;;;;;5097543;28;20275;-81
2021/06/03 11:30:55;;;;;;;3.55;1.60;;;26.80;99.90;;;;;;5114607;28;20279;-81
2021/06/03 11:33:21;;;;;;;1.42;1.30;;;27.10;99.90;;;;;;5114748;28;20235;-81
2021/06/03 11:35:47;;;;;;;3.77;1.80;;;27.20;99.90;;;;;;5114810;28;20264;-81
2021/06/03 11:38:44;;;;;;;1.55;1.38;;;27.30;99.90;;;;;;5114054;28;20670;-81
2021/06/03 11:41:31;;;;;;;2.22;1.55;;;27.30;99.90;;;;;;5097139;28;20485;-81
2021/06/03 11:44:10;;;;;;;2.00;1.55;;;27.20;99.90;;;;;;5114703;28;20168;-81
2021/06/03 11:46:51;;;;;;;3.03;1.65;;;27.10;99.90;;;;;;5108933;28;20168;-81
2021/06/03 11:49:37;;;;;;;3.50;1.70;;;27.20;99.90;;;;;;5103673;28;20615;-81
2021/06/03 11:52:18;;;;;;;2.22;1.90;;;27.00;99.90;;;;;;5087851;28;20191;-81
2021/06/03 11:55:10;;;;;;;2.30;1.58;;;26.80;99.90;;;;;;5094993;28;20218;-81
2021/06/03 11:57:37;;;;;;;1.92;1.60;;;26.70;99.90;;;;;;5086137;28;20655;-81
2021/06/03 12:00:12;;;;;;;2.13;1.80;;;26.70;99.90;;;;;;5106586;28;20183;-81
2021/06/03 12:02:43;;;;;;;3.40;1.40;;;26.80;99.90;;;;;;5088147;28;20232;-80
2021/06/03 12:05:12;;;;;;;2.00;1.60;;;26.80;99.90;;;;;;5109035;28;20200;-81
2021/06/03 12:07:41;;;;;;;2.05;1.35;;;26.90;99.90;;;;;;5102892;28;20160;-81
2021/06/03 12:10:07;;;;;;;2.65;1.60;;;27.00;99.90;;;;;;5103829;28;20166;-82
2021/06/03 12:12:32;;;;;;;4.25;1.70;;;27.10;99.90;;;;;;5103724;28;20611;-82
2021/06/03 12:14:58;;;;;;;3.70;1.65;;;27.00;99.90;;;;;;5089465;28;20184;-81
2021/06/03 12:17:24;;;;;;;2.42;1.45;;;27.00;99.90;;;;;;5107335;28;20199;-82
2021/06/03 12:19:51;;;;;;;2.92;1.33;;;27.00;99.90;;;;;;5065697;28;20168;-80
2021/06/03 12:22:19;;;;;;;2.97;1.58;;;27.00;99.90;;;;;;5093996;28;20691;-80
2021/06/03 12:24:49;;;;;;;3.35;1.63;;;27.00;99.90;;;;;;5090092;28;20200;-80
2021/06/03 12:27:24;;;;;;;2.63;1.40;;;27.00;99.90;;;;;;5093255;28;20169;-80
2021/06/03 12:29:49;;;;;;;2.95;1.60;;;27.20;99.90;;;;;;5093164;28;20176;-80
2021/06/03 12:32:15;;;;;;;2.65;1.65;;;27.10;99.90;;;;;;5085631;28;20732;-80
2021/06/03 12:34:41;;;;;;;2.25;1.60;;;27.20;99.90;;;;;;5103340;28;20175;-80
2021/06/03 12:37:19;;;;;;;1.95;1.60;;;27.30;99.90;;;;;;5101540;28;20655;-80
2021/06/03 12:39:44;;;;;;;2.90;1.50;;;27.30;99.90;;;;;;5104278;28;20180;-80
2021/06/03 12:42:10;;;;;;;2.45;1.65;;;27.40;99.90;;;;;;5087337;28;20199;-80
2021/06/03 12:44:36;;;;;;;2.72;1.50;;;27.50;99.90;;;;;;5093804;28;20234;-80
2021/06/03 12:47:06;;;;;;;2.53;1.80;;;27.60;99.90;;;;;;5086362;28;20249;-81
2021/06/03 12:49:32;;;;;;;2.00;1.60;;;27.70;99.90;;;;;;5085591;28;20244;-81
2021/06/03 12:52:06;;;;;;;1.98;1.63;;;27.70;99.90;;;;;;5087450;28;20549;-80
2021/06/03 12:54:36;;;;;;;1.42;1.33;;;27.70;99.90;;;;;;5113087;28;20177;-80
2021/06/03 12:57:04;;;;;;;1.90;1.30;;;27.70;99.90;;;;;;5113813;28;20541;-79
2021/06/03 12:59:31;;;;;;;3.08;1.00;;;27.80;99.90;;;;;;5113649;28;20173;-79